sensor_id;sensor_type;location;lat;lon;timestamp;temperature;humidity
38090;DHT22;23904;52.322;10.232;2024-01-27T00:01:32;5.50;99.90
38090;DHT22;23904;52.322;10.232;2024-01-27T00:03:57;5.50;99.90
38090;DHT22;23904;52.322;10.232;2024-01-27T00:06:23;5.50;99.90
38090;DHT22;23904;52.322;10.232;2024-01-27T00:08:49;5.50;99.90
38090;DHT22;23904;52.322;10.232;2024-01-27T00:11:14;5.50;99.90
38090;DHT22;23904;52.322;10.232;2024-01-27T00:13:40;5.50;99.90
38090;DHT22;23904;52.322;10.232;2024-01-27T00:16:06;5.40;99.90
38090;DHT22;23904;52.322;10.232;2024-01-27T00:18:32;5.40;99.90
38090;DHT22;23904;52.322;10.232;2024-01-27T00:20:57;5.40;99.90
38090;DHT22;23904;52.322;10.232;2024-01-27T00:23:23;5.40;99.90
38090;DHT22;23904;52.322;10.232;2024-01-27T00:25:48;5.40;99.90
38090;DHT22;23904;52.322;10.232;2024-01-27T00:28:14;5.40;99.90
38090;DHT22;23904;52.322;10.232;2024-01-27T00:30:39;5.40;99.90
38090;DHT22;23904;52.322;10.232;2024-01-27T00:33:05;5.40;99.90
38090;DHT22;23904;52.322;10.232;2024-01-27T00:35:30;5.40;99.90
38090;DHT22;23904;52.322;10.232;2024-01-27T00:37:56;5.40;99.90
38090;DHT22;23904;52.322;10.232;2024-01-27T00:40:22;5.40;99.90
38090;DHT22;23904;52.322;10.232;2024-01-27T00:42:48;5.50;99.90
38090;DHT22;23904;52.322;10.232;2024-01-27T00:45:13;5.40;99.90
38090;DHT22;23904;52.322;10.232;2024-01-27T00:47:39;5.50;99.90
38090;DHT22;23904;52.322;10.232;2024-01-27T00:50:04;5.50;99.90
38090;DHT22;23904;52.322;10.232;2024-01-27T00:52:31;5.40;99.90
38090;DHT22;23904;52.322;10.232;2024-01-27T00:54:56;5.40;99.90
38090;DHT22;23904;52.322;10.232;2024-01-27T00:57:22;5.40;99.90
38090;DHT22;23904;52.322;10.232;2024-01-27T00:59:48;5.40;99.90
38090;DHT22;23904;52.322;10.232;2024-01-27T01:02:13;5.40;99.90
38090;DHT22;23904;52.322;10.232;2024-01-27T01:04:39;5.50;99.90
38090;DHT22;23904;52.322;10.232;2024-01-27T01:07:04;5.40;99.90
38090;DHT22;23904;52.322;10.232;2024-01-27T01:09:30;5.40;99.90
38090;DHT22;23904;52.322;10.232;2024-01-27T01:11:55;5.40;99.90
38090;DHT22;23904;52.322;10.232;2024-01-27T01:14:21;5.40;99.90
38090;DHT22;23904;52.322;10.232;2024-01-27T01:16:46;5.30;99.90
38090;DHT22;23904;52.322;10.232;2024-01-27T01:19:12;5.30;99.90
38090;DHT22;23904;52.322;10.232;2024-01-27T01:21:37;5.40;99.90
38090;DHT22;23904;52.322;10.232;2024-01-27T01:24:03;5.40;99.90
38090;DHT22;23904;52.322;10.232;2024-01-27T01:26:28;5.40;99.90
38090;DHT22;23904;52.322;10.232;2024-01-27T01:28:54;5.40;99.90
38090;DHT22;23904;52.322;10.232;2024-01-27T01:31:19;5.40;99.90
38090;DHT22;23904;52.322;10.232;2024-01-27T01:33:45;5.40;99.90
38090;DHT22;23904;52.322;10.232;2024-01-27T01:36:10;5.40;99.90
38090;DHT22;23904;52.322;10.232;2024-01-27T01:38:36;5.40;99.90
38090;DHT22;23904;52.322;10.232;2024-01-27T01:41:01;5.40;99.90
38090;DHT22;23904;52.322;10.232;2024-01-27T01:43:27;5.40;99.90
38090;DHT22;23904;52.322;10.232;2024-01-27T01:45:53;5.50;99.90
38090;DHT22;23904;52.322;10.232;2024-01-27T01:48:20;5.50;99.90
38090;DHT22;23904;52.322;10.232;2024-01-27T01:50:46;5.50;99.90
38090;DHT22;23904;52.322;10.232;2024-01-27T01:53:12;5.50;99.90
38090;DHT22;23904;52.322;10.232;2024-01-27T01:55:39;5.50;99.90
38090;DHT22;23904;52.322;10.232;2024-01-27T01:58:05;5.60;99.90
38090;DHT22;23904;52.322;10.232;2024-01-27T02:00:31;5.60;99.90
38090;DHT22;23904;52.322;10.232;2024-01-27T02:02:57;5.60;99.90
38090;DHT22;23904;52.322;10.232;2024-01-27T02:05:24;5.60;99.90
38090;DHT22;23904;52.322;10.232;2024-01-27T02:07:50;5.50;99.90
38090;DHT22;23904;52.322;10.232;2024-01-27T02:10:16;5.50;99.90
38090;DHT22;23904;52.322;10.232;2024-01-27T02:12:43;5.50;99.90
38090;DHT22;23904;52.322;10.232;2024-01-27T02:15:11;5.50;99.90
38090;DHT22;23904;52.322;10.232;2024-01-27T02:17:40;5.40;99.90
38090;DHT22;23904;52.322;10.232;2024-01-27T02:20:06;5.30;99.90
38090;DHT22;23904;52.322;10.232;2024-01-27T02:22:33;5.30;99.90
38090;DHT22;23904;52.322;10.232;2024-01-27T02:24:59;5.20;99.90
38090;DHT22;23904;52.322;10.232;2024-01-27T02:27:25;5.20;99.90
38090;DHT22;23904;52.322;10.232;2024-01-27T02:29:50;5.10;99.90
38090;DHT22;23904;52.322;10.232;2024-01-27T02:32:16;5.00;99.90
38090;DHT22;23904;52.322;10.232;2024-01-27T02:34:42;5.00;99.90
38090;DHT22;23904;52.322;10.232;2024-01-27T02:37:07;4.90;99.90
38090;DHT22;23904;52.322;10.232;2024-01-27T02:39:33;4.80;99.90
38090;DHT22;23904;52.322;10.232;2024-01-27T02:41:58;4.80;99.90
38090;DHT22;23904;52.322;10.232;2024-01-27T02:44:23;4.80;99.90
38090;DHT22;23904;52.322;10.232;2024-01-27T02:46:49;4.70;99.90
38090;DHT22;23904;52.322;10.232;2024-01-27T02:49:14;4.70;99.90
38090;DHT22;23904;52.322;10.232;2024-01-27T02:51:40;4.70;99.90
38090;DHT22;23904;52.322;10.232;2024-01-27T02:54:06;4.70;99.90
38090;DHT22;23904;52.322;10.232;2024-01-27T02:56:31;4.60;99.90
38090;DHT22;23904;52.322;10.232;2024-01-27T02:58:57;4.60;99.90
38090;DHT22;23904;52.322;10.232;2024-01-27T03:01:22;4.60;99.90
38090;DHT22;23904;52.322;10.232;2024-01-27T03:03:48;4.60;99.90
38090;DHT22;23904;52.322;10.232;2024-01-27T03:06:13;4.60;99.90
38090;DHT22;23904;52.322;10.232;2024-01-27T03:08:39;4.60;99.90
38090;DHT22;23904;52.322;10.232;2024-01-27T03:11:04;4.60;99.90
38090;DHT22;23904;52.322;10.232;2024-01-27T03:13:30;4.50;99.90
38090;DHT22;23904;52.322;10.232;2024-01-27T03:15:55;4.50;99.90
38090;DHT22;23904;52.322;10.232;2024-01-27T03:18:21;4.50;99.90
38090;DHT22;23904;52.322;10.232;2024-01-27T03:20:47;4.50;99.90
38090;DHT22;23904;52.322;10.232;2024-01-27T03:23:13;4.50;99.90
38090;DHT22;23904;52.322;10.232;2024-01-27T03:25:38;4.50;99.90
38090;DHT22;23904;52.322;10.232;2024-01-27T03:28:04;4.50;99.90
38090;DHT22;23904;52.322;10.232;2024-01-27T03:30:29;4.50;99.90
38090;DHT22;23904;52.322;10.232;2024-01-27T03:32:55;4.50;99.90
38090;DHT22;23904;52.322;10.232;2024-01-27T03:35:20;4.50;99.90
38090;DHT22;23904;52.322;10.232;2024-01-27T03:37:46;4.50;99.90
38090;DHT22;23904;52.322;10.232;2024-01-27T03:40:12;4.50;99.90
38090;DHT22;23904;52.322;10.232;2024-01-27T03:42:37;4.50;99.90
38090;DHT22;23904;52.322;10.232;2024-01-27T03:45:03;4.50;99.90
38090;DHT22;23904;52.322;10.232;2024-01-27T03:47:29;4.40;99.90
38090;DHT22;23904;52.322;10.232;2024-01-27T03:49:54;4.40;99.90
38090;DHT22;23904;52.322;10.232;2024-01-27T03:52:20;4.40;99.90
38090;DHT22;23904;52.322;10.232;2024-01-27T03:54:45;4.40;99.90
38090;DHT22;23904;52.322;10.232;2024-01-27T03:57:11;4.30;99.90
38090;DHT22;23904;52.322;10.232;2024-01-27T03:59:36;4.30;99.90
38090;DHT22;23904;52.322;10.232;2024-01-27T04:02:02;4.30;99.90
38090;DHT22;23904;52.322;10.232;2024-01-27T04:04:27;4.30;99.90
38090;DHT22;23904;52.322;10.232;2024-01-27T04:06:53;4.30;99.90
38090;DHT22;23904;52.322;10.232;2024-01-27T04:09:18;4.30;99.90
38090;DHT22;23904;52.322;10.232;2024-01-27T04:11:44;4.20;99.90
38090;DHT22;23904;52.322;10.232;2024-01-27T04:14:09;4.20;99.90
38090;DHT22;23904;52.322;10.232;2024-01-27T04:16:35;4.20;99.90
38090;DHT22;23904;52.322;10.232;2024-01-27T04:19:00;4.20;99.90
38090;DHT22;23904;52.322;10.232;2024-01-27T04:21:26;4.20;99.90
38090;DHT22;23904;52.322;10.232;2024-01-27T04:23:52;4.20;99.90
38090;DHT22;23904;52.322;10.232;2024-01-27T04:26:17;4.20;99.90
38090;DHT22;23904;52.322;10.232;2024-01-27T04:28:43;4.10;99.90
38090;DHT22;23904;52.322;10.232;2024-01-27T04:31:08;4.20;99.90
38090;DHT22;23904;52.322;10.232;2024-01-27T04:33:34;4.20;99.90
38090;DHT22;23904;52.322;10.232;2024-01-27T04:36:00;4.10;99.90
38090;DHT22;23904;52.322;10.232;2024-01-27T04:38:25;4.10;99.90
38090;DHT22;23904;52.322;10.232;2024-01-27T04:40:51;4.10;99.90
38090;DHT22;23904;52.322;10.232;2024-01-27T04:43:18;4.00;99.90
38090;DHT22;23904;52.322;10.232;2024-01-27T04:45:45;4.00;99.90
38090;DHT22;23904;52.322;10.232;2024-01-27T04:48:12;4.00;99.90
38090;DHT22;23904;52.322;10.232;2024-01-27T04:50:38;4.00;99.90
38090;DHT22;23904;52.322;10.232;2024-01-27T04:53:04;4.00;99.90
38090;DHT22;23904;52.322;10.232;2024-01-27T04:55:29;3.90;99.90
38090;DHT22;23904;52.322;10.232;2024-01-27T04:57:55;3.90;99.90
38090;DHT22;23904;52.322;10.232;2024-01-27T05:00:20;3.90;99.90
38090;DHT22;23904;52.322;10.232;2024-01-27T05:02:46;3.90;99.90
38090;DHT22;23904;52.322;10.232;2024-01-27T05:05:12;3.90;99.90
38090;DHT22;23904;52.322;10.232;2024-01-27T05:07:40;3.90;99.90
38090;DHT22;23904;52.322;10.232;2024-01-27T05:10:06;3.90;99.90
38090;DHT22;23904;52.322;10.232;2024-01-27T05:12:35;3.90;99.90
38090;DHT22;23904;52.322;10.232;2024-01-27T05:15:01;3.80;99.90
38090;DHT22;23904;52.322;10.232;2024-01-27T05:17:26;3.90;99.90
38090;DHT22;23904;52.322;10.232;2024-01-27T05:19:52;3.90;99.90
38090;DHT22;23904;52.322;10.232;2024-01-27T05:22:17;3.80;99.90
38090;DHT22;23904;52.322;10.232;2024-01-27T05:24:43;3.80;99.90
38090;DHT22;23904;52.322;10.232;2024-01-27T05:27:09;3.80;99.90
38090;DHT22;23904;52.322;10.232;2024-01-27T05:29:37;3.80;99.90
38090;DHT22;23904;52.322;10.232;2024-01-27T05:32:03;3.80;99.90
38090;DHT22;23904;52.322;10.232;2024-01-27T05:34:28;3.80;99.90
38090;DHT22;23904;52.322;10.232;2024-01-27T05:36:54;3.80;99.90
38090;DHT22;23904;52.322;10.232;2024-01-27T05:39:19;3.80;99.90
38090;DHT22;23904;52.322;10.232;2024-01-27T05:41:45;3.70;99.90
38090;DHT22;23904;52.322;10.232;2024-01-27T05:44:10;3.70;99.90
38090;DHT22;23904;52.322;10.232;2024-01-27T05:46:36;3.70;99.90
38090;DHT22;23904;52.322;10.232;2024-01-27T05:49:01;3.60;99.90
38090;DHT22;23904;52.322;10.232;2024-01-27T05:51:29;3.60;99.90
38090;DHT22;23904;52.322;10.232;2024-01-27T05:53:55;3.60;99.90
38090;DHT22;23904;52.322;10.232;2024-01-27T05:56:21;3.60;99.90
38090;DHT22;23904;52.322;10.232;2024-01-27T05:58:47;3.50;99.90
38090;DHT22;23904;52.322;10.232;2024-01-27T06:01:13;3.50;99.90
38090;DHT22;23904;52.322;10.232;2024-01-27T06:03:42;3.40;99.90
38090;DHT22;23904;52.322;10.232;2024-01-27T06:06:08;3.50;99.90
38090;DHT22;23904;52.322;10.232;2024-01-27T06:08:34;3.40;99.90
38090;DHT22;23904;52.322;10.232;2024-01-27T06:10:59;3.40;99.90
38090;DHT22;23904;52.322;10.232;2024-01-27T06:13:25;3.40;99.90
38090;DHT22;23904;52.322;10.232;2024-01-27T06:15:50;3.40;99.90
38090;DHT22;23904;52.322;10.232;2024-01-27T06:18:16;3.40;99.90
38090;DHT22;23904;52.322;10.232;2024-01-27T06:20:42;3.30;99.90
38090;DHT22;23904;52.322;10.232;2024-01-27T06:23:08;3.30;99.90
38090;DHT22;23904;52.322;10.232;2024-01-27T06:25:34;3.30;99.90
38090;DHT22;23904;52.322;10.232;2024-01-27T06:27:59;3.30;99.90
38090;DHT22;23904;52.322;10.232;2024-01-27T06:30:25;3.30;99.90
38090;DHT22;23904;52.322;10.232;2024-01-27T06:32:51;3.20;99.90
38090;DHT22;23904;52.322;10.232;2024-01-27T06:35:16;3.20;99.90
38090;DHT22;23904;52.322;10.232;2024-01-27T06:37:42;3.20;99.90
38090;DHT22;23904;52.322;10.232;2024-01-27T06:40:08;3.20;99.90
38090;DHT22;23904;52.322;10.232;2024-01-27T06:42:37;3.20;99.90
38090;DHT22;23904;52.322;10.232;2024-01-27T06:45:03;3.20;99.90
38090;DHT22;23904;52.322;10.232;2024-01-27T06:47:29;3.10;99.90
38090;DHT22;23904;52.322;10.232;2024-01-27T06:49:55;3.10;99.90
38090;DHT22;23904;52.322;10.232;2024-01-27T06:52:20;3.10;99.90
38090;DHT22;23904;52.322;10.232;2024-01-27T06:54:46;3.10;99.90
38090;DHT22;23904;52.322;10.232;2024-01-27T06:57:19;3.10;99.90
38090;DHT22;23904;52.322;10.232;2024-01-27T06:59:46;3.10;99.90
38090;DHT22;23904;52.322;10.232;2024-01-27T07:02:17;3.10;99.90
38090;DHT22;23904;52.322;10.232;2024-01-27T07:04:44;3.00;99.90
38090;DHT22;23904;52.322;10.232;2024-01-27T07:07:09;3.00;99.90
38090;DHT22;23904;52.322;10.232;2024-01-27T07:09:35;3.00;99.90
38090;DHT22;23904;52.322;10.232;2024-01-27T07:12:00;3.00;99.90
38090;DHT22;23904;52.322;10.232;2024-01-27T07:14:26;3.00;99.90
38090;DHT22;23904;52.322;10.232;2024-01-27T07:16:51;3.00;99.90
38090;DHT22;23904;52.322;10.232;2024-01-27T07:19:17;3.00;99.90
38090;DHT22;23904;52.322;10.232;2024-01-27T07:21:42;3.10;99.90
38090;DHT22;23904;52.322;10.232;2024-01-27T07:24:08;3.10;99.90
38090;DHT22;23904;52.322;10.232;2024-01-27T07:26:34;3.10;99.90
38090;DHT22;23904;52.322;10.232;2024-01-27T07:29:00;3.00;99.90
38090;DHT22;23904;52.322;10.232;2024-01-27T07:31:25;3.10;99.90
38090;DHT22;23904;52.322;10.232;2024-01-27T07:33:51;3.10;99.90
38090;DHT22;23904;52.322;10.232;2024-01-27T07:36:17;3.10;99.90
38090;DHT22;23904;52.322;10.232;2024-01-27T07:38:42;3.10;99.90
38090;DHT22;23904;52.322;10.232;2024-01-27T07:41:08;3.10;99.90
38090;DHT22;23904;52.322;10.232;2024-01-27T07:43:33;3.10;99.90
38090;DHT22;23904;52.322;10.232;2024-01-27T07:45:59;3.10;99.90
38090;DHT22;23904;52.322;10.232;2024-01-27T07:48:24;3.10;99.90
38090;DHT22;23904;52.322;10.232;2024-01-27T07:50:50;3.10;99.90
38090;DHT22;23904;52.322;10.232;2024-01-27T07:53:16;3.10;99.90
38090;DHT22;23904;52.322;10.232;2024-01-27T07:55:42;3.20;99.90
38090;DHT22;23904;52.322;10.232;2024-01-27T07:58:07;3.20;99.90
38090;DHT22;23904;52.322;10.232;2024-01-27T08:00:33;3.20;99.90
38090;DHT22;23904;52.322;10.232;2024-01-27T08:02:59;3.30;99.90
38090;DHT22;23904;52.322;10.232;2024-01-27T08:05:24;3.30;99.90
38090;DHT22;23904;52.322;10.232;2024-01-27T08:07:50;3.30;99.90
38090;DHT22;23904;52.322;10.232;2024-01-27T08:10:15;3.30;99.90
38090;DHT22;23904;52.322;10.232;2024-01-27T08:12:41;3.30;99.90
38090;DHT22;23904;52.322;10.232;2024-01-27T08:15:07;3.40;99.90
38090;DHT22;23904;52.322;10.232;2024-01-27T08:17:33;3.40;99.90
38090;DHT22;23904;52.322;10.232;2024-01-27T08:19:58;3.50;99.90
38090;DHT22;23904;52.322;10.232;2024-01-27T08:22:24;3.50;99.90
38090;DHT22;23904;52.322;10.232;2024-01-27T08:24:50;3.50;99.90
38090;DHT22;23904;52.322;10.232;2024-01-27T08:27:15;3.60;99.90
38090;DHT22;23904;52.322;10.232;2024-01-27T08:29:41;3.60;99.90
38090;DHT22;23904;52.322;10.232;2024-01-27T08:32:06;3.60;99.90
38090;DHT22;23904;52.322;10.232;2024-01-27T08:34:32;3.70;99.90
38090;DHT22;23904;52.322;10.232;2024-01-27T08:37:00;3.70;99.90
38090;DHT22;23904;52.322;10.232;2024-01-27T08:39:27;3.70;99.90
38090;DHT22;23904;52.322;10.232;2024-01-27T08:41:53;3.80;99.90
38090;DHT22;23904;52.322;10.232;2024-01-27T08:44:18;3.80;99.90
38090;DHT22;23904;52.322;10.232;2024-01-27T08:46:44;3.90;99.90
38090;DHT22;23904;52.322;10.232;2024-01-27T08:49:09;3.90;99.90
38090;DHT22;23904;52.322;10.232;2024-01-27T08:51:35;4.00;99.90
38090;DHT22;23904;52.322;10.232;2024-01-27T08:54:00;4.00;99.90
38090;DHT22;23904;52.322;10.232;2024-01-27T08:56:26;4.10;99.90
38090;DHT22;23904;52.322;10.232;2024-01-27T08:58:52;4.10;99.90
38090;DHT22;23904;52.322;10.232;2024-01-27T09:01:18;4.20;99.90
38090;DHT22;23904;52.322;10.232;2024-01-27T09:03:44;4.20;99.90
38090;DHT22;23904;52.322;10.232;2024-01-27T09:06:09;4.20;99.90
38090;DHT22;23904;52.322;10.232;2024-01-27T09:08:35;4.30;99.90
38090;DHT22;23904;52.322;10.232;2024-01-27T09:11:04;4.40;99.90
38090;DHT22;23904;52.322;10.232;2024-01-27T09:13:29;4.40;99.90
38090;DHT22;23904;52.322;10.232;2024-01-27T09:15:57;4.50;99.90
38090;DHT22;23904;52.322;10.232;2024-01-27T09:18:23;4.60;99.90
38090;DHT22;23904;52.322;10.232;2024-01-27T09:20:48;4.70;99.90
38090;DHT22;23904;52.322;10.232;2024-01-27T09:23:14;4.70;99.90
38090;DHT22;23904;52.322;10.232;2024-01-27T09:25:39;5.00;99.90
38090;DHT22;23904;52.322;10.232;2024-01-27T09:28:05;5.30;99.90
38090;DHT22;23904;52.322;10.232;2024-01-27T09:30:31;5.60;99.90
38090;DHT22;23904;52.322;10.232;2024-01-27T09:32:56;5.70;99.90
38090;DHT22;23904;52.322;10.232;2024-01-27T09:35:22;6.00;99.90
38090;DHT22;23904;52.322;10.232;2024-01-27T09:37:47;6.40;99.90
38090;DHT22;23904;52.322;10.232;2024-01-27T09:40:13;7.00;99.90
38090;DHT22;23904;52.322;10.232;2024-01-27T09:42:39;7.60;99.90
38090;DHT22;23904;52.322;10.232;2024-01-27T09:45:09;8.00;99.90
38090;DHT22;23904;52.322;10.232;2024-01-27T09:47:36;7.80;99.90
38090;DHT22;23904;52.322;10.232;2024-01-27T09:50:02;7.80;99.90
38090;DHT22;23904;52.322;10.232;2024-01-27T09:52:27;7.80;99.90
38090;DHT22;23904;52.322;10.232;2024-01-27T09:54:53;8.00;99.90
38090;DHT22;23904;52.322;10.232;2024-01-27T09:57:18;8.10;99.90
38090;DHT22;23904;52.322;10.232;2024-01-27T09:59:46;8.40;99.90
38090;DHT22;23904;52.322;10.232;2024-01-27T10:02:14;8.50;99.90
38090;DHT22;23904;52.322;10.232;2024-01-27T10:04:41;8.40;99.90
38090;DHT22;23904;52.322;10.232;2024-01-27T10:07:08;8.60;99.90
38090;DHT22;23904;52.322;10.232;2024-01-27T10:09:33;8.80;99.90
38090;DHT22;23904;52.322;10.232;2024-01-27T10:12:01;9.30;99.90
38090;DHT22;23904;52.322;10.232;2024-01-27T10:14:38;9.90;99.90
38090;DHT22;23904;52.322;10.232;2024-01-27T10:17:04;10.20;99.90
38090;DHT22;23904;52.322;10.232;2024-01-27T10:19:30;10.60;99.90
38090;DHT22;23904;52.322;10.232;2024-01-27T10:22:01;11.20;99.90
38090;DHT22;23904;52.322;10.232;2024-01-27T10:24:28;10.90;99.90
38090;DHT22;23904;52.322;10.232;2024-01-27T10:27:03;11.40;99.90
38090;DHT22;23904;52.322;10.232;2024-01-27T10:29:30;11.70;99.90
38090;DHT22;23904;52.322;10.232;2024-01-27T10:32:06;11.70;99.90
38090;DHT22;23904;52.322;10.232;2024-01-27T10:34:32;12.50;99.90
38090;DHT22;23904;52.322;10.232;2024-01-27T10:36:58;12.90;99.90
38090;DHT22;23904;52.322;10.232;2024-01-27T10:39:24;12.30;99.90
38090;DHT22;23904;52.322;10.232;2024-01-27T10:41:50;12.10;99.90
38090;DHT22;23904;52.322;10.232;2024-01-27T10:44:19;11.30;99.90
38090;DHT22;23904;52.322;10.232;2024-01-27T10:46:47;11.10;99.90
38090;DHT22;23904;52.322;10.232;2024-01-27T10:49:15;11.10;99.90
38090;DHT22;23904;52.322;10.232;2024-01-27T10:52:03;10.70;99.90
38090;DHT22;23904;52.322;10.232;2024-01-27T10:54:33;9.90;99.90
38090;DHT22;23904;52.322;10.232;2024-01-27T10:57:01;9.70;99.90
38090;DHT22;23904;52.322;10.232;2024-01-27T10:59:28;10.00;99.90
38090;DHT22;23904;52.322;10.232;2024-01-27T11:01:56;10.00;99.90
38090;DHT22;23904;52.322;10.232;2024-01-27T11:04:22;10.50;99.90
38090;DHT22;23904;52.322;10.232;2024-01-27T11:06:48;11.00;99.90
38090;DHT22;23904;52.322;10.232;2024-01-27T11:09:14;10.90;99.90
38090;DHT22;23904;52.322;10.232;2024-01-27T11:11:43;10.70;99.90
38090;DHT22;23904;52.322;10.232;2024-01-27T11:14:10;10.50;99.90
38090;DHT22;23904;52.322;10.232;2024-01-27T11:16:36;10.40;99.90
38090;DHT22;23904;52.322;10.232;2024-01-27T11:19:10;10.30;99.90
38090;DHT22;23904;52.322;10.232;2024-01-27T11:21:37;9.40;99.90
38090;DHT22;23904;52.322;10.232;2024-01-27T11:24:13;9.20;99.90
38090;DHT22;23904;52.322;10.232;2024-01-27T11:26:39;8.90;99.90
38090;DHT22;23904;52.322;10.232;2024-01-27T11:29:08;8.70;99.90
38090;DHT22;23904;52.322;10.232;2024-01-27T11:31:35;8.50;99.90
38090;DHT22;23904;52.322;10.232;2024-01-27T11:34:00;8.60;99.90
38090;DHT22;23904;52.322;10.232;2024-01-27T11:36:27;8.60;99.90
38090;DHT22;23904;52.322;10.232;2024-01-27T11:38:53;8.70;99.90
38090;DHT22;23904;52.322;10.232;2024-01-27T11:41:29;8.70;99.90
38090;DHT22;23904;52.322;10.232;2024-01-27T11:43:58;8.80;99.90
38090;DHT22;23904;52.322;10.232;2024-01-27T11:46:27;9.20;99.90
38090;DHT22;23904;52.322;10.232;2024-01-27T11:48:53;9.70;99.90
38090;DHT22;23904;52.322;10.232;2024-01-27T11:51:19;10.00;99.90
38090;DHT22;23904;52.322;10.232;2024-01-27T11:53:45;9.80;99.90
38090;DHT22;23904;52.322;10.232;2024-01-27T11:56:10;10.10;99.90
38090;DHT22;23904;52.322;10.232;2024-01-27T11:58:36;10.30;99.90
38090;DHT22;23904;52.322;10.232;2024-01-27T12:01:02;10.50;99.90
38090;DHT22;23904;52.322;10.232;2024-01-27T12:03:28;10.30;99.90
38090;DHT22;23904;52.322;10.232;2024-01-27T12:05:55;10.90;99.90
38090;DHT22;23904;52.322;10.232;2024-01-27T12:08:21;11.30;99.90
38090;DHT22;23904;52.322;10.232;2024-01-27T12:10:46;11.30;99.90
38090;DHT22;23904;52.322;10.232;2024-01-27T12:13:12;11.60;99.90
38090;DHT22;23904;52.322;10.232;2024-01-27T12:15:38;12.20;99.90
38090;DHT22;23904;52.322;10.232;2024-01-27T12:18:06;12.90;99.90
38090;DHT22;23904;52.322;10.232;2024-01-27T12:20:32;13.40;99.90
38090;DHT22;23904;52.322;10.232;2024-01-27T12:23:04;13.20;99.90
38090;DHT22;23904;52.322;10.232;2024-01-27T12:25:30;13.80;99.90
38090;DHT22;23904;52.322;10.232;2024-01-27T12:27:56;14.30;99.90
38090;DHT22;23904;52.322;10.232;2024-01-27T12:30:26;14.80;99.40
38090;DHT22;23904;52.322;10.232;2024-01-27T12:32:52;14.50;99.90
38090;DHT22;23904;52.322;10.232;2024-01-27T12:35:18;14.00;99.90
38090;DHT22;23904;52.322;10.232;2024-01-27T12:37:44;14.10;99.90
38090;DHT22;23904;52.322;10.232;2024-01-27T12:40:19;13.20;99.90
38090;DHT22;23904;52.322;10.232;2024-01-27T12:42:46;12.50;99.90
38090;DHT22;23904;52.322;10.232;2024-01-27T12:45:12;12.20;99.90
38090;DHT22;23904;52.322;10.232;2024-01-27T12:47:39;12.20;99.90
38090;DHT22;23904;52.322;10.232;2024-01-27T12:50:05;12.40;99.90
38090;DHT22;23904;52.322;10.232;2024-01-27T12:52:31;12.90;99.90
38090;DHT22;23904;52.322;10.232;2024-01-27T12:54:57;12.90;99.90
38090;DHT22;23904;52.322;10.232;2024-01-27T12:57:23;12.80;99.90
38090;DHT22;23904;52.322;10.232;2024-01-27T12:59:49;12.60;99.90
38090;DHT22;23904;52.322;10.232;2024-01-27T13:02:14;12.00;99.90
38090;DHT22;23904;52.322;10.232;2024-01-27T13:04:41;11.90;99.90
38090;DHT22;23904;52.322;10.232;2024-01-27T13:07:07;11.40;99.90
38090;DHT22;23904;52.322;10.232;2024-01-27T13:09:33;10.90;99.90
38090;DHT22;23904;52.322;10.232;2024-01-27T13:11:59;10.50;99.90
38090;DHT22;23904;52.322;10.232;2024-01-27T13:14:25;10.30;99.90
38090;DHT22;23904;52.322;10.232;2024-01-27T13:16:50;10.30;99.90
38090;DHT22;23904;52.322;10.232;2024-01-27T13:19:19;10.90;99.90
38090;DHT22;23904;52.322;10.232;2024-01-27T13:21:44;11.20;99.90
38090;DHT22;23904;52.322;10.232;2024-01-27T13:24:10;11.60;99.90
38090;DHT22;23904;52.322;10.232;2024-01-27T13:26:36;11.80;99.90
38090;DHT22;23904;52.322;10.232;2024-01-27T13:29:03;12.40;99.90
38090;DHT22;23904;52.322;10.232;2024-01-27T13:31:30;12.40;99.90
38090;DHT22;23904;52.322;10.232;2024-01-27T13:33:56;12.40;99.90
38090;DHT22;23904;52.322;10.232;2024-01-27T13:36:23;12.70;99.90
38090;DHT22;23904;52.322;10.232;2024-01-27T13:38:48;13.30;99.90
38090;DHT22;23904;52.322;10.232;2024-01-27T13:41:14;13.30;99.90
38090;DHT22;23904;52.322;10.232;2024-01-27T13:43:40;13.30;99.90
38090;DHT22;23904;52.322;10.232;2024-01-27T13:46:06;13.30;99.90
38090;DHT22;23904;52.322;10.232;2024-01-27T13:48:32;13.90;99.90
38090;DHT22;23904;52.322;10.232;2024-01-27T13:50:57;13.80;99.90
38090;DHT22;23904;52.322;10.232;2024-01-27T13:53:23;13.10;99.90
38090;DHT22;23904;52.322;10.232;2024-01-27T13:55:49;13.00;99.90
38090;DHT22;23904;52.322;10.232;2024-01-27T13:58:14;12.70;99.90
38090;DHT22;23904;52.322;10.232;2024-01-27T14:00:40;12.90;99.90
38090;DHT22;23904;52.322;10.232;2024-01-27T14:03:05;12.90;99.90
38090;DHT22;23904;52.322;10.232;2024-01-27T14:05:31;12.70;99.90
38090;DHT22;23904;52.322;10.232;2024-01-27T14:07:56;12.30;99.90
38090;DHT22;23904;52.322;10.232;2024-01-27T14:10:22;11.80;99.90
38090;DHT22;23904;52.322;10.232;2024-01-27T14:12:50;11.40;99.90
38090;DHT22;23904;52.322;10.232;2024-01-27T14:15:15;10.70;99.90
38090;DHT22;23904;52.322;10.232;2024-01-27T14:17:43;10.20;99.90
38090;DHT22;23904;52.322;10.232;2024-01-27T14:20:09;9.80;99.90
38090;DHT22;23904;52.322;10.232;2024-01-27T14:22:35;9.50;99.90
38090;DHT22;23904;52.322;10.232;2024-01-27T14:25:01;9.20;99.90
38090;DHT22;23904;52.322;10.232;2024-01-27T14:27:28;9.10;99.90
38090;DHT22;23904;52.322;10.232;2024-01-27T14:29:56;9.10;99.90
38090;DHT22;23904;52.322;10.232;2024-01-27T14:32:22;9.00;99.90
38090;DHT22;23904;52.322;10.232;2024-01-27T14:34:48;9.00;99.90
38090;DHT22;23904;52.322;10.232;2024-01-27T14:37:15;8.90;99.90
38090;DHT22;23904;52.322;10.232;2024-01-27T14:39:47;8.80;99.90
38090;DHT22;23904;52.322;10.232;2024-01-27T14:42:14;8.80;99.90
38090;DHT22;23904;52.322;10.232;2024-01-27T14:44:40;8.70;99.90
38090;DHT22;23904;52.322;10.232;2024-01-27T14:47:08;8.70;99.90
38090;DHT22;23904;52.322;10.232;2024-01-27T14:49:34;8.70;99.90
38090;DHT22;23904;52.322;10.232;2024-01-27T14:52:01;8.60;99.90
38090;DHT22;23904;52.322;10.232;2024-01-27T14:54:27;8.40;99.90
38090;DHT22;23904;52.322;10.232;2024-01-27T14:56:52;8.40;99.90
38090;DHT22;23904;52.322;10.232;2024-01-27T14:59:18;8.30;99.90
38090;DHT22;23904;52.322;10.232;2024-01-27T15:01:44;8.20;99.90
38090;DHT22;23904;52.322;10.232;2024-01-27T15:04:12;8.10;99.90
38090;DHT22;23904;52.322;10.232;2024-01-27T15:06:38;8.10;99.90
38090;DHT22;23904;52.322;10.232;2024-01-27T15:09:04;8.00;99.90
38090;DHT22;23904;52.322;10.232;2024-01-27T15:11:29;8.00;99.90
38090;DHT22;23904;52.322;10.232;2024-01-27T15:13:55;8.00;99.90
38090;DHT22;23904;52.322;10.232;2024-01-27T15:16:20;7.90;99.90
38090;DHT22;23904;52.322;10.232;2024-01-27T15:18:47;7.90;99.90
38090;DHT22;23904;52.322;10.232;2024-01-27T15:21:12;7.70;99.90